Rosholt, Wisconsin
Current Conditions -  °F | °C
As of 5:15 AM on Saturday 25 Oct 2014 (Local Time) from KSTE Reporting Station
Clear Clear  
Wind Chill: 10°   Ceiling: Unl
Heat Index: 10°   Visibility: 7mi
Dew Point:   Wind: 7mph
Humidity: 92%   Direction: 270°W
Pressure: 29.86"   Gusts: NA
Location:  44.63°N, 89.31°W
Report Text: KSTE 251015Z AUTO 27006KT 7SM CLR 10/09 A2986 RMK AO2 T01030090
Loading
Personal Weather Stations






























Interactive Weather Map
Tropical Storm Tracking
New forecast layout! Learn more

10-Day Weather Forecast

Advertisements
Track Severe Weather on mobile